sensor_id;sensor_type;location;lat;lon;timestamp;P1;durP1;ratioP1;P2;durP2;ratioP2
78610;SDS011;67932;50.474;4.436;2023-06-14T00:00:00;8.52;;;4.57;;
78610;SDS011;67932;50.474;4.436;2023-06-14T00:02:29;6.40;;;4.20;;
78610;SDS011;67932;50.474;4.436;2023-06-14T00:04:55;6.68;;;4.78;;
78610;SDS011;67932;50.474;4.436;2023-06-14T00:07:27;8.18;;;4.63;;
78610;SDS011;67932;50.474;4.436;2023-06-14T00:10:03;8.00;;;4.95;;
78610;SDS011;67932;50.474;4.436;2023-06-14T00:12:30;8.50;;;4.85;;
78610;SDS011;67932;50.474;4.436;2023-06-14T00:14:56;5.82;;;4.90;;
78610;SDS011;67932;50.474;4.436;2023-06-14T00:17:23;6.00;;;4.75;;
78610;SDS011;67932;50.474;4.436;2023-06-14T00:19:49;6.35;;;4.68;;
78610;SDS011;67932;50.474;4.436;2023-06-14T00:22:16;8.88;;;4.53;;
78610;SDS011;67932;50.474;4.436;2023-06-14T00:24:42;7.47;;;5.38;;
78610;SDS011;67932;50.474;4.436;2023-06-14T00:27:08;7.68;;;4.93;;
78610;SDS011;67932;50.474;4.436;2023-06-14T00:29:35;6.07;;;4.70;;
78610;SDS011;67932;50.474;4.436;2023-06-14T00:32:01;9.43;;;4.53;;
78610;SDS011;67932;50.474;4.436;2023-06-14T00:34:27;7.22;;;4.95;;
78610;SDS011;67932;50.474;4.436;2023-06-14T00:36:53;9.23;;;4.75;;
78610;SDS011;67932;50.474;4.436;2023-06-14T00:39:20;6.53;;;5.50;;
78610;SDS011;67932;50.474;4.436;2023-06-14T00:41:46;9.30;;;5.47;;
78610;SDS011;67932;50.474;4.436;2023-06-14T00:44:13;5.75;;;5.13;;
78610;SDS011;67932;50.474;4.436;2023-06-14T00:46:42;8.40;;;5.10;;
78610;SDS011;67932;50.474;4.436;2023-06-14T00:49:12;5.57;;;4.53;;
78610;SDS011;67932;50.474;4.436;2023-06-14T00:51:41;6.97;;;5.03;;
78610;SDS011;67932;50.474;4.436;2023-06-14T00:54:07;8.77;;;4.95;;
78610;SDS011;67932;50.474;4.436;2023-06-14T00:56:37;8.48;;;4.90;;
78610;SDS011;67932;50.474;4.436;2023-06-14T00:59:04;7.55;;;4.38;;
78610;SDS011;67932;50.474;4.436;2023-06-14T01:01:31;5.80;;;4.95;;
78610;SDS011;67932;50.474;4.436;2023-06-14T01:03:59;7.07;;;5.10;;
78610;SDS011;67932;50.474;4.436;2023-06-14T01:06:44;7.13;;;4.97;;
78610;SDS011;67932;50.474;4.436;2023-06-14T01:09:27;7.25;;;4.90;;
78610;SDS011;67932;50.474;4.436;2023-06-14T01:12:24;7.15;;;5.05;;
78610;SDS011;67932;50.474;4.436;2023-06-14T01:15:01;6.25;;;4.95;;
78610;SDS011;67932;50.474;4.436;2023-06-14T01:17:28;8.20;;;5.03;;
78610;SDS011;67932;50.474;4.436;2023-06-14T01:19:58;6.85;;;4.72;;
78610;SDS011;67932;50.474;4.436;2023-06-14T01:22:28;8.30;;;4.82;;
78610;SDS011;67932;50.474;4.436;2023-06-14T01:24:55;8.00;;;5.07;;
78610;SDS011;67932;50.474;4.436;2023-06-14T01:27:23;7.25;;;5.65;;
78610;SDS011;67932;50.474;4.436;2023-06-14T01:29:57;9.25;;;5.38;;
78610;SDS011;67932;50.474;4.436;2023-06-14T01:32:24;8.30;;;5.47;;
78610;SDS011;67932;50.474;4.436;2023-06-14T01:34:53;7.90;;;5.55;;
78610;SDS011;67932;50.474;4.436;2023-06-14T01:37:19;7.03;;;4.63;;
78610;SDS011;67932;50.474;4.436;2023-06-14T01:39:47;6.47;;;4.65;;
78610;SDS011;67932;50.474;4.436;2023-06-14T01:42:16;8.35;;;5.28;;
78610;SDS011;67932;50.474;4.436;2023-06-14T01:44:44;6.00;;;4.93;;
78610;SDS011;67932;50.474;4.436;2023-06-14T01:47:11;6.35;;;4.90;;
78610;SDS011;67932;50.474;4.436;2023-06-14T01:49:38;6.28;;;5.22;;
78610;SDS011;67932;50.474;4.436;2023-06-14T01:52:05;8.10;;;5.28;;
78610;SDS011;67932;50.474;4.436;2023-06-14T01:54:34;7.93;;;5.05;;
78610;SDS011;67932;50.474;4.436;2023-06-14T01:57:03;6.53;;;5.43;;
78610;SDS011;67932;50.474;4.436;2023-06-14T01:59:29;8.80;;;4.93;;
78610;SDS011;67932;50.474;4.436;2023-06-14T02:01:56;7.55;;;5.07;;
78610;SDS011;67932;50.474;4.436;2023-06-14T02:04:22;7.32;;;5.28;;
78610;SDS011;67932;50.474;4.436;2023-06-14T02:06:48;6.40;;;4.72;;
78610;SDS011;67932;50.474;4.436;2023-06-14T02:09:15;8.52;;;5.15;;
78610;SDS011;67932;50.474;4.436;2023-06-14T02:11:42;6.32;;;4.78;;
78610;SDS011;67932;50.474;4.436;2023-06-14T02:14:08;8.73;;;5.13;;
78610;SDS011;67932;50.474;4.436;2023-06-14T02:16:37;9.40;;;5.43;;
78610;SDS011;67932;50.474;4.436;2023-06-14T02:19:04;8.13;;;5.47;;
78610;SDS011;67932;50.474;4.436;2023-06-14T02:21:30;7.20;;;5.50;;
78610;SDS011;67932;50.474;4.436;2023-06-14T02:23:57;7.13;;;5.50;;
78610;SDS011;67932;50.474;4.436;2023-06-14T02:26:23;8.35;;;5.60;;
78610;SDS011;67932;50.474;4.436;2023-06-14T02:28:50;7.90;;;5.32;;
78610;SDS011;67932;50.474;4.436;2023-06-14T02:31:16;7.25;;;5.55;;
78610;SDS011;67932;50.474;4.436;2023-06-14T02:33:43;7.88;;;5.18;;
78610;SDS011;67932;50.474;4.436;2023-06-14T02:36:09;7.72;;;5.28;;
78610;SDS011;67932;50.474;4.436;2023-06-14T02:38:35;8.68;;;5.53;;
78610;SDS011;67932;50.474;4.436;2023-06-14T02:41:02;9.23;;;5.78;;
78610;SDS011;67932;50.474;4.436;2023-06-14T02:43:29;7.80;;;5.53;;
78610;SDS011;67932;50.474;4.436;2023-06-14T02:45:55;8.77;;;5.70;;
78610;SDS011;67932;50.474;4.436;2023-06-14T02:48:21;7.78;;;5.35;;
78610;SDS011;67932;50.474;4.436;2023-06-14T02:50:47;6.97;;;5.25;;
78610;SDS011;67932;50.474;4.436;2023-06-14T02:53:14;7.00;;;5.30;;
78610;SDS011;67932;50.474;4.436;2023-06-14T02:55:40;7.22;;;5.47;;
78610;SDS011;67932;50.474;4.436;2023-06-14T02:58:07;9.25;;;5.88;;
78610;SDS011;67932;50.474;4.436;2023-06-14T03:00:33;7.38;;;5.32;;
78610;SDS011;67932;50.474;4.436;2023-06-14T03:03:01;11.43;;;6.38;;
78610;SDS011;67932;50.474;4.436;2023-06-14T03:05:27;8.43;;;6.28;;
78610;SDS011;67932;50.474;4.436;2023-06-14T03:07:53;10.05;;;6.10;;
78610;SDS011;67932;50.474;4.436;2023-06-14T03:10:20;9.05;;;6.10;;
78610;SDS011;67932;50.474;4.436;2023-06-14T03:12:47;7.47;;;5.95;;
78610;SDS011;67932;50.474;4.436;2023-06-14T03:15:13;9.35;;;6.45;;
78610;SDS011;67932;50.474;4.436;2023-06-14T03:17:40;8.25;;;5.97;;
78610;SDS011;67932;50.474;4.436;2023-06-14T03:20:10;9.35;;;5.97;;
78610;SDS011;67932;50.474;4.436;2023-06-14T03:22:36;7.50;;;6.07;;
78610;SDS011;67932;50.474;4.436;2023-06-14T03:25:04;10.23;;;6.10;;
78610;SDS011;67932;50.474;4.436;2023-06-14T03:27:31;9.40;;;6.65;;
78610;SDS011;67932;50.474;4.436;2023-06-14T03:29:57;9.90;;;5.80;;
78610;SDS011;67932;50.474;4.436;2023-06-14T03:32:23;8.25;;;6.45;;
78610;SDS011;67932;50.474;4.436;2023-06-14T03:34:50;9.50;;;6.35;;
78610;SDS011;67932;50.474;4.436;2023-06-14T03:37:16;7.35;;;6.00;;
78610;SDS011;67932;50.474;4.436;2023-06-14T03:39:42;10.10;;;6.65;;
78610;SDS011;67932;50.474;4.436;2023-06-14T03:42:12;7.97;;;6.32;;
78610;SDS011;67932;50.474;4.436;2023-06-14T03:44:39;9.05;;;6.63;;
78610;SDS011;67932;50.474;4.436;2023-06-14T03:47:05;10.18;;;6.50;;
78610;SDS011;67932;50.474;4.436;2023-06-14T03:49:31;10.98;;;6.60;;
78610;SDS011;67932;50.474;4.436;2023-06-14T03:51:58;8.20;;;6.05;;
78610;SDS011;67932;50.474;4.436;2023-06-14T03:54:24;10.50;;;6.28;;
78610;SDS011;67932;50.474;4.436;2023-06-14T03:56:52;9.93;;;6.20;;
78610;SDS011;67932;50.474;4.436;2023-06-14T03:59:22;7.78;;;6.28;;
78610;SDS011;67932;50.474;4.436;2023-06-14T04:01:48;10.80;;;6.55;;
78610;SDS011;67932;50.474;4.436;2023-06-14T04:04:15;9.05;;;6.13;;
78610;SDS011;67932;50.474;4.436;2023-06-14T04:06:41;10.73;;;6.60;;
78610;SDS011;67932;50.474;4.436;2023-06-14T04:09:08;9.63;;;6.25;;
78610;SDS011;67932;50.474;4.436;2023-06-14T04:11:34;6.57;;;5.78;;
78610;SDS011;67932;50.474;4.436;2023-06-14T04:14:01;9.15;;;7.07;;
78610;SDS011;67932;50.474;4.436;2023-06-14T04:16:28;7.72;;;6.40;;
78610;SDS011;67932;50.474;4.436;2023-06-14T04:18:54;9.40;;;6.50;;
78610;SDS011;67932;50.474;4.436;2023-06-14T04:21:23;10.20;;;7.38;;
78610;SDS011;67932;50.474;4.436;2023-06-14T04:23:50;8.65;;;6.63;;
78610;SDS011;67932;50.474;4.436;2023-06-14T04:26:18;10.73;;;7.03;;
78610;SDS011;67932;50.474;4.436;2023-06-14T04:28:44;7.93;;;6.57;;
78610;SDS011;67932;50.474;4.436;2023-06-14T04:31:12;9.50;;;6.38;;
78610;SDS011;67932;50.474;4.436;2023-06-14T04:33:39;10.40;;;6.25;;
78610;SDS011;67932;50.474;4.436;2023-06-14T04:36:11;10.20;;;6.90;;
78610;SDS011;67932;50.474;4.436;2023-06-14T04:38:38;10.38;;;7.22;;
78610;SDS011;67932;50.474;4.436;2023-06-14T04:41:04;9.32;;;6.65;;
78610;SDS011;67932;50.474;4.436;2023-06-14T04:43:31;12.30;;;7.55;;
78610;SDS011;67932;50.474;4.436;2023-06-14T04:46:03;12.38;;;6.32;;
78610;SDS011;67932;50.474;4.436;2023-06-14T04:48:30;9.48;;;7.25;;
78610;SDS011;67932;50.474;4.436;2023-06-14T04:51:00;10.68;;;6.63;;
78610;SDS011;67932;50.474;4.436;2023-06-14T04:53:29;9.45;;;6.90;;
78610;SDS011;67932;50.474;4.436;2023-06-14T04:55:56;11.88;;;6.80;;
78610;SDS011;67932;50.474;4.436;2023-06-14T04:58:22;8.80;;;6.88;;
78610;SDS011;67932;50.474;4.436;2023-06-14T05:00:50;10.80;;;7.47;;
78610;SDS011;67932;50.474;4.436;2023-06-14T05:03:16;9.95;;;6.80;;
78610;SDS011;67932;50.474;4.436;2023-06-14T05:05:43;9.57;;;6.88;;
78610;SDS011;67932;50.474;4.436;2023-06-14T05:08:10;9.23;;;7.40;;
78610;SDS011;67932;50.474;4.436;2023-06-14T05:10:36;13.10;;;7.38;;
78610;SDS011;67932;50.474;4.436;2023-06-14T05:13:03;8.90;;;6.65;;
78610;SDS011;67932;50.474;4.436;2023-06-14T05:15:29;9.10;;;7.07;;
78610;SDS011;67932;50.474;4.436;2023-06-14T05:17:55;10.98;;;7.28;;
78610;SDS011;67932;50.474;4.436;2023-06-14T05:20:22;12.45;;;7.50;;
78610;SDS011;67932;50.474;4.436;2023-06-14T05:22:53;10.95;;;7.30;;
78610;SDS011;67932;50.474;4.436;2023-06-14T05:25:22;9.07;;;7.57;;
78610;SDS011;67932;50.474;4.436;2023-06-14T05:27:48;14.25;;;6.97;;
78610;SDS011;67932;50.474;4.436;2023-06-14T05:30:15;10.18;;;7.03;;
78610;SDS011;67932;50.474;4.436;2023-06-14T05:32:41;10.50;;;7.80;;
78610;SDS011;67932;50.474;4.436;2023-06-14T05:35:08;12.13;;;7.20;;
78610;SDS011;67932;50.474;4.436;2023-06-14T05:37:36;9.85;;;7.47;;
78610;SDS011;67932;50.474;4.436;2023-06-14T05:40:04;13.35;;;7.22;;
78610;SDS011;67932;50.474;4.436;2023-06-14T05:42:31;9.43;;;6.95;;
78610;SDS011;67932;50.474;4.436;2023-06-14T05:44:58;16.50;;;7.82;;
78610;SDS011;67932;50.474;4.436;2023-06-14T05:47:24;11.05;;;7.88;;
78610;SDS011;67932;50.474;4.436;2023-06-14T05:49:52;11.80;;;8.05;;
78610;SDS011;67932;50.474;4.436;2023-06-14T05:52:20;11.20;;;7.72;;
78610;SDS011;67932;50.474;4.436;2023-06-14T05:54:51;12.15;;;6.88;;
78610;SDS011;67932;50.474;4.436;2023-06-14T05:57:21;14.25;;;7.20;;
78610;SDS011;67932;50.474;4.436;2023-06-14T05:59:51;11.57;;;7.63;;
78610;SDS011;67932;50.474;4.436;2023-06-14T06:02:23;9.77;;;6.55;;
78610;SDS011;67932;50.474;4.436;2023-06-14T06:04:51;16.48;;;6.60;;
78610;SDS011;67932;50.474;4.436;2023-06-14T06:07:19;12.73;;;6.75;;
78610;SDS011;67932;50.474;4.436;2023-06-14T06:09:45;9.57;;;6.30;;
78610;SDS011;67932;50.474;4.436;2023-06-14T06:12:12;10.90;;;6.72;;
78610;SDS011;67932;50.474;4.436;2023-06-14T06:14:40;11.75;;;7.20;;
78610;SDS011;67932;50.474;4.436;2023-06-14T06:17:10;13.00;;;6.30;;
78610;SDS011;67932;50.474;4.436;2023-06-14T06:19:38;12.00;;;6.72;;
78610;SDS011;67932;50.474;4.436;2023-06-14T06:22:05;13.63;;;6.70;;
78610;SDS011;67932;50.474;4.436;2023-06-14T06:24:31;11.05;;;5.80;;
78610;SDS011;67932;50.474;4.436;2023-06-14T06:26:58;13.50;;;5.90;;
78610;SDS011;67932;50.474;4.436;2023-06-14T06:29:25;12.38;;;6.68;;
78610;SDS011;67932;50.474;4.436;2023-06-14T06:31:51;9.10;;;7.05;;
78610;SDS011;67932;50.474;4.436;2023-06-14T06:34:18;9.30;;;6.82;;
78610;SDS011;67932;50.474;4.436;2023-06-14T06:36:44;10.95;;;6.97;;
78610;SDS011;67932;50.474;4.436;2023-06-14T06:39:10;9.52;;;6.72;;
78610;SDS011;67932;50.474;4.436;2023-06-14T06:41:37;12.32;;;7.43;;
78610;SDS011;67932;50.474;4.436;2023-06-14T06:44:07;11.00;;;6.45;;
78610;SDS011;67932;50.474;4.436;2023-06-14T06:46:35;7.97;;;6.35;;
78610;SDS011;67932;50.474;4.436;2023-06-14T06:49:09;9.30;;;6.15;;
78610;SDS011;67932;50.474;4.436;2023-06-14T06:51:43;10.75;;;7.07;;
78610;SDS011;67932;50.474;4.436;2023-06-14T06:54:23;8.38;;;6.30;;
78610;SDS011;67932;50.474;4.436;2023-06-14T06:56:50;10.35;;;6.47;;
78610;SDS011;67932;50.474;4.436;2023-06-14T06:59:16;9.07;;;7.07;;
78610;SDS011;67932;50.474;4.436;2023-06-14T07:01:44;11.80;;;7.70;;
78610;SDS011;67932;50.474;4.436;2023-06-14T07:04:12;9.65;;;6.90;;
78610;SDS011;67932;50.474;4.436;2023-06-14T07:06:42;10.90;;;6.68;;
78610;SDS011;67932;50.474;4.436;2023-06-14T07:09:09;9.65;;;6.85;;
78610;SDS011;67932;50.474;4.436;2023-06-14T07:11:42;10.95;;;6.28;;
78610;SDS011;67932;50.474;4.436;2023-06-14T07:14:09;10.02;;;7.00;;
78610;SDS011;67932;50.474;4.436;2023-06-14T07:16:36;11.48;;;6.97;;
78610;SDS011;67932;50.474;4.436;2023-06-14T07:19:02;10.88;;;6.63;;
78610;SDS011;67932;50.474;4.436;2023-06-14T07:21:29;10.85;;;7.13;;
78610;SDS011;67932;50.474;4.436;2023-06-14T07:23:55;10.05;;;6.80;;
78610;SDS011;67932;50.474;4.436;2023-06-14T07:26:22;8.32;;;6.38;;
78610;SDS011;67932;50.474;4.436;2023-06-14T07:28:49;9.20;;;6.32;;
78610;SDS011;67932;50.474;4.436;2023-06-14T07:31:15;10.80;;;6.32;;
78610;SDS011;67932;50.474;4.436;2023-06-14T07:33:44;10.85;;;6.57;;
78610;SDS011;67932;50.474;4.436;2023-06-14T07:36:11;9.93;;;6.07;;
78610;SDS011;67932;50.474;4.436;2023-06-14T07:38:37;9.15;;;5.90;;
78610;SDS011;67932;50.474;4.436;2023-06-14T07:41:05;8.63;;;5.45;;
78610;SDS011;67932;50.474;4.436;2023-06-14T07:43:32;11.45;;;5.88;;
78610;SDS011;67932;50.474;4.436;2023-06-14T07:45:58;9.20;;;5.55;;
78610;SDS011;67932;50.474;4.436;2023-06-14T07:48:25;8.65;;;5.75;;
78610;SDS011;67932;50.474;4.436;2023-06-14T07:50:51;6.32;;;5.30;;
78610;SDS011;67932;50.474;4.436;2023-06-14T07:53:18;8.45;;;5.35;;
78610;SDS011;67932;50.474;4.436;2023-06-14T07:55:44;7.80;;;5.63;;
78610;SDS011;67932;50.474;4.436;2023-06-14T07:58:12;8.10;;;5.45;;
78610;SDS011;67932;50.474;4.436;2023-06-14T08:00:38;6.05;;;5.00;;
78610;SDS011;67932;50.474;4.436;2023-06-14T08:03:05;6.80;;;5.03;;
78610;SDS011;67932;50.474;4.436;2023-06-14T08:05:31;7.88;;;5.70;;
78610;SDS011;67932;50.474;4.436;2023-06-14T08:07:58;9.52;;;5.78;;
78610;SDS011;67932;50.474;4.436;2023-06-14T08:10:24;7.75;;;5.70;;
78610;SDS011;67932;50.474;4.436;2023-06-14T08:12:50;7.82;;;5.85;;
78610;SDS011;67932;50.474;4.436;2023-06-14T08:15:17;9.05;;;5.85;;
78610;SDS011;67932;50.474;4.436;2023-06-14T08:17:43;9.55;;;5.95;;
78610;SDS011;67932;50.474;4.436;2023-06-14T08:20:10;10.32;;;5.88;;
78610;SDS011;67932;50.474;4.436;2023-06-14T08:22:38;8.00;;;5.80;;
78610;SDS011;67932;50.474;4.436;2023-06-14T08:25:07;7.40;;;5.72;;
78610;SDS011;67932;50.474;4.436;2023-06-14T08:27:34;6.93;;;5.75;;
78610;SDS011;67932;50.474;4.436;2023-06-14T08:30:00;7.65;;;5.47;;
78610;SDS011;67932;50.474;4.436;2023-06-14T08:32:28;8.73;;;5.47;;
78610;SDS011;67932;50.474;4.436;2023-06-14T08:34:54;10.25;;;5.93;;
78610;SDS011;67932;50.474;4.436;2023-06-14T08:37:20;9.80;;;5.40;;
78610;SDS011;67932;50.474;4.436;2023-06-14T08:39:47;8.68;;;5.30;;
78610;SDS011;67932;50.474;4.436;2023-06-14T08:42:13;6.00;;;5.38;;
78610;SDS011;67932;50.474;4.436;2023-06-14T08:44:43;9.02;;;5.43;;
78610;SDS011;67932;50.474;4.436;2023-06-14T08:47:14;8.38;;;5.28;;
78610;SDS011;67932;50.474;4.436;2023-06-14T08:49:45;5.70;;;5.13;;
78610;SDS011;67932;50.474;4.436;2023-06-14T08:52:27;6.57;;;5.20;;
78610;SDS011;67932;50.474;4.436;2023-06-14T08:55:10;8.65;;;5.35;;
78610;SDS011;67932;50.474;4.436;2023-06-14T08:57:38;10.27;;;5.65;;
78610;SDS011;67932;50.474;4.436;2023-06-14T09:02:48;7.25;;;5.53;;
78610;SDS011;67932;50.474;4.436;2023-06-14T10:56:47;7.35;;;4.68;;
78610;SDS011;67932;50.474;4.436;2023-06-14T10:59:18;5.93;;;5.20;;
78610;SDS011;67932;50.474;4.436;2023-06-14T11:04:58;7.65;;;5.22;;
78610;SDS011;67932;50.474;4.436;2023-06-14T11:07:43;6.40;;;4.88;;
78610;SDS011;67932;50.474;4.436;2023-06-14T11:10:37;7.72;;;4.97;;
78610;SDS011;67932;50.474;4.436;2023-06-14T11:13:05;6.90;;;4.68;;
78610;SDS011;67932;50.474;4.436;2023-06-14T11:15:57;6.80;;;4.72;;
78610;SDS011;67932;50.474;4.436;2023-06-14T11:18:28;4.75;;;4.22;;
78610;SDS011;67932;50.474;4.436;2023-06-14T11:21:33;6.38;;;4.35;;
78610;SDS011;67932;50.474;4.436;2023-06-14T11:28:55;5.70;;;4.50;;
78610;SDS011;67932;50.474;4.436;2023-06-14T11:34:49;5.25;;;4.20;;
78610;SDS011;67932;50.474;4.436;2023-06-14T11:37:16;6.63;;;4.47;;
78610;SDS011;67932;50.474;4.436;2023-06-14T11:39:45;6.90;;;4.40;;
78610;SDS011;67932;50.474;4.436;2023-06-14T11:42:15;9.35;;;4.72;;
78610;SDS011;67932;50.474;4.436;2023-06-14T11:44:42;6.85;;;4.78;;
78610;SDS011;67932;50.474;4.436;2023-06-14T11:47:12;5.47;;;4.30;;
78610;SDS011;67932;50.474;4.436;2023-06-14T11:49:42;8.65;;;4.45;;
78610;SDS011;67932;50.474;4.436;2023-06-14T11:52:10;6.60;;;5.13;;
78610;SDS011;67932;50.474;4.436;2023-06-14T11:54:36;7.85;;;4.72;;
78610;SDS011;67932;50.474;4.436;2023-06-14T11:57:10;8.80;;;4.90;;
78610;SDS011;67932;50.474;4.436;2023-06-14T11:59:39;7.85;;;4.88;;
78610;SDS011;67932;50.474;4.436;2023-06-14T12:02:08;7.32;;;4.95;;
78610;SDS011;67932;50.474;4.436;2023-06-14T12:04:36;6.03;;;5.07;;
78610;SDS011;67932;50.474;4.436;2023-06-14T12:07:09;6.57;;;5.07;;
78610;SDS011;67932;50.474;4.436;2023-06-14T12:12:24;6.82;;;4.47;;
78610;SDS011;67932;50.474;4.436;2023-06-14T12:15:29;5.85;;;4.07;;
78610;SDS011;67932;50.474;4.436;2023-06-14T12:18:32;6.75;;;4.53;;
78610;SDS011;67932;50.474;4.436;2023-06-14T12:24:04;6.97;;;4.47;;
78610;SDS011;67932;50.474;4.436;2023-06-14T12:27:18;6.00;;;4.65;;
78610;SDS011;67932;50.474;4.436;2023-06-14T12:30:05;6.63;;;4.05;;
78610;SDS011;67932;50.474;4.436;2023-06-14T12:32:53;5.95;;;4.05;;
78610;SDS011;67932;50.474;4.436;2023-06-14T12:39:00;5.57;;;4.22;;
78610;SDS011;67932;50.474;4.436;2023-06-14T12:41:29;5.45;;;4.63;;
78610;SDS011;67932;50.474;4.436;2023-06-14T12:44:29;5.97;;;4.45;;
78610;SDS011;67932;50.474;4.436;2023-06-14T12:46:59;5.25;;;4.43;;
78610;SDS011;67932;50.474;4.436;2023-06-14T12:49:26;7.20;;;4.40;;
78610;SDS011;67932;50.474;4.436;2023-06-14T12:52:00;5.85;;;4.53;;
78610;SDS011;67932;50.474;4.436;2023-06-14T12:54:26;6.65;;;4.57;;
78610;SDS011;67932;50.474;4.436;2023-06-14T12:56:54;6.05;;;4.25;;
78610;SDS011;67932;50.474;4.436;2023-06-14T12:59:20;9.10;;;4.63;;
78610;SDS011;67932;50.474;4.436;2023-06-14T13:01:47;7.35;;;4.50;;
78610;SDS011;67932;50.474;4.436;2023-06-14T13:04:15;8.25;;;4.75;;
78610;SDS011;67932;50.474;4.436;2023-06-14T13:06:41;6.53;;;4.57;;
78610;SDS011;67932;50.474;4.436;2023-06-14T13:09:08;8.35;;;4.68;;
78610;SDS011;67932;50.474;4.436;2023-06-14T13:11:34;6.63;;;4.30;;
78610;SDS011;67932;50.474;4.436;2023-06-14T13:14:03;7.63;;;4.38;;
78610;SDS011;67932;50.474;4.436;2023-06-14T13:16:30;5.88;;;4.35;;
78610;SDS011;67932;50.474;4.436;2023-06-14T13:18:57;5.30;;;4.32;;
78610;SDS011;67932;50.474;4.436;2023-06-14T13:21:24;8.18;;;4.55;;
78610;SDS011;67932;50.474;4.436;2023-06-14T13:23:50;5.68;;;4.38;;
78610;SDS011;67932;50.474;4.436;2023-06-14T13:26:17;10.73;;;4.68;;
78610;SDS011;67932;50.474;4.436;2023-06-14T13:28:46;4.57;;;3.97;;
78610;SDS011;67932;50.474;4.436;2023-06-14T13:31:13;4.75;;;3.75;;
78610;SDS011;67932;50.474;4.436;2023-06-14T13:33:39;5.05;;;4.05;;
78610;SDS011;67932;50.474;4.436;2023-06-14T13:36:06;5.55;;;4.18;;
78610;SDS011;67932;50.474;4.436;2023-06-14T13:38:33;6.63;;;4.22;;
78610;SDS011;67932;50.474;4.436;2023-06-14T13:40:59;9.35;;;4.10;;
78610;SDS011;67932;50.474;4.436;2023-06-14T13:43:28;6.75;;;4.05;;
78610;SDS011;67932;50.474;4.436;2023-06-14T13:45:55;5.30;;;3.83;;
78610;SDS011;67932;50.474;4.436;2023-06-14T13:48:21;6.30;;;3.63;;
78610;SDS011;67932;50.474;4.436;2023-06-14T13:50:47;6.70;;;4.00;;
78610;SDS011;67932;50.474;4.436;2023-06-14T13:53:14;6.88;;;3.90;;
78610;SDS011;67932;50.474;4.436;2023-06-14T13:55:40;5.13;;;4.05;;
78610;SDS011;67932;50.474;4.436;2023-06-14T13:58:07;6.28;;;4.28;;
78610;SDS011;67932;50.474;4.436;2023-06-14T14:00:33;4.35;;;3.70;;
78610;SDS011;67932;50.474;4.436;2023-06-14T14:03:01;7.13;;;4.03;;
78610;SDS011;67932;50.474;4.436;2023-06-14T14:05:28;5.82;;;3.90;;
78610;SDS011;67932;50.474;4.436;2023-06-14T14:07:55;5.28;;;3.90;;
78610;SDS011;67932;50.474;4.436;2023-06-14T14:10:25;5.32;;;3.58;;
78610;SDS011;67932;50.474;4.436;2023-06-14T14:12:51;5.20;;;3.85;;
78610;SDS011;67932;50.474;4.436;2023-06-14T14:15:19;4.25;;;3.85;;
78610;SDS011;67932;50.474;4.436;2023-06-14T14:17:46;7.68;;;3.60;;
78610;SDS011;67932;50.474;4.436;2023-06-14T14:20:12;5.57;;;3.83;;
78610;SDS011;67932;50.474;4.436;2023-06-14T14:22:43;4.93;;;3.70;;
78610;SDS011;67932;50.474;4.436;2023-06-14T14:25:10;5.32;;;3.67;;
78610;SDS011;67932;50.474;4.436;2023-06-14T14:27:36;5.60;;;3.58;;
78610;SDS011;67932;50.474;4.436;2023-06-14T14:30:03;9.05;;;3.65;;
78610;SDS011;67932;50.474;4.436;2023-06-14T14:32:30;6.13;;;3.60;;
78610;SDS011;67932;50.474;4.436;2023-06-14T14:34:56;5.40;;;3.53;;
78610;SDS011;67932;50.474;4.436;2023-06-14T14:37:23;6.18;;;3.05;;
78610;SDS011;67932;50.474;4.436;2023-06-14T14:39:49;5.57;;;3.08;;
78610;SDS011;67932;50.474;4.436;2023-06-14T14:42:16;5.82;;;3.35;;
78610;SDS011;67932;50.474;4.436;2023-06-14T14:44:43;7.75;;;3.00;;
78610;SDS011;67932;50.474;4.436;2023-06-14T14:47:09;4.70;;;3.10;;
78610;SDS011;67932;50.474;4.436;2023-06-14T14:49:36;4.07;;;3.00;;
78610;SDS011;67932;50.474;4.436;2023-06-14T14:52:02;6.05;;;3.03;;
78610;SDS011;67932;50.474;4.436;2023-06-14T14:54:29;4.53;;;3.25;;
78610;SDS011;67932;50.474;4.436;2023-06-14T14:56:55;8.02;;;2.42;;
78610;SDS011;67932;50.474;4.436;2023-06-14T14:59:22;3.58;;;2.50;;
78610;SDS011;67932;50.474;4.436;2023-06-14T15:01:48;4.80;;;2.60;;
78610;SDS011;67932;50.474;4.436;2023-06-14T15:04:15;5.53;;;2.33;;
78610;SDS011;67932;50.474;4.436;2023-06-14T15:06:42;3.92;;;2.45;;
78610;SDS011;67932;50.474;4.436;2023-06-14T15:09:08;4.97;;;2.08;;
78610;SDS011;67932;50.474;4.436;2023-06-14T15:11:36;4.35;;;2.20;;
78610;SDS011;67932;50.474;4.436;2023-06-14T15:14:06;4.63;;;2.25;;
78610;SDS011;67932;50.474;4.436;2023-06-14T15:16:34;3.58;;;2.10;;
78610;SDS011;67932;50.474;4.436;2023-06-14T15:19:01;3.72;;;2.22;;
78610;SDS011;67932;50.474;4.436;2023-06-14T15:21:33;3.65;;;1.83;;
78610;SDS011;67932;50.474;4.436;2023-06-14T15:24:03;4.45;;;1.90;;
78610;SDS011;67932;50.474;4.436;2023-06-14T15:26:33;4.72;;;1.85;;
78610;SDS011;67932;50.474;4.436;2023-06-14T15:29:21;3.03;;;1.83;;
78610;SDS011;67932;50.474;4.436;2023-06-14T15:32:05;3.25;;;1.98;;
78610;SDS011;67932;50.474;4.436;2023-06-14T15:34:32;2.53;;;1.55;;
78610;SDS011;67932;50.474;4.436;2023-06-14T15:36:58;5.28;;;1.77;;
78610;SDS011;67932;50.474;4.436;2023-06-14T15:39:25;5.05;;;1.70;;
78610;SDS011;67932;50.474;4.436;2023-06-14T15:41:56;2.65;;;1.40;;
78610;SDS011;67932;50.474;4.436;2023-06-14T15:44:22;2.95;;;1.92;;
78610;SDS011;67932;50.474;4.436;2023-06-14T15:46:49;3.33;;;1.50;;
78610;SDS011;67932;50.474;4.436;2023-06-14T15:49:15;3.45;;;1.58;;
78610;SDS011;67932;50.474;4.436;2023-06-14T15:51:42;3.92;;;1.60;;
78610;SDS011;67932;50.474;4.436;2023-06-14T15:54:09;2.38;;;1.38;;
78610;SDS011;67932;50.474;4.436;2023-06-14T15:56:35;1.40;;;1.30;;
78610;SDS011;67932;50.474;4.436;2023-06-14T15:59:02;4.10;;;1.50;;
78610;SDS011;67932;50.474;4.436;2023-06-14T16:01:28;1.98;;;1.70;;
78610;SDS011;67932;50.474;4.436;2023-06-14T16:03:56;2.92;;;1.55;;
78610;SDS011;67932;50.474;4.436;2023-06-14T16:06:22;2.75;;;1.55;;
78610;SDS011;67932;50.474;4.436;2023-06-14T16:08:49;2.80;;;1.70;;
78610;SDS011;67932;50.474;4.436;2023-06-14T16:11:17;2.88;;;1.50;;
78610;SDS011;67932;50.474;4.436;2023-06-14T16:13:45;2.03;;;1.50;;
78610;SDS011;67932;50.474;4.436;2023-06-14T16:16:11;3.88;;;2.03;;
78610;SDS011;67932;50.474;4.436;2023-06-14T16:18:39;3.13;;;1.67;;
78610;SDS011;67932;50.474;4.436;2023-06-14T16:21:06;3.90;;;2.08;;
78610;SDS011;67932;50.474;4.436;2023-06-14T16:23:34;4.13;;;1.75;;
78610;SDS011;67932;50.474;4.436;2023-06-14T16:26:00;3.95;;;1.90;;
78610;SDS011;67932;50.474;4.436;2023-06-14T16:28:29;4.38;;;1.70;;
78610;SDS011;67932;50.474;4.436;2023-06-14T16:30:59;2.50;;;1.80;;
78610;SDS011;67932;50.474;4.436;2023-06-14T16:33:25;2.42;;;1.90;;
78610;SDS011;67932;50.474;4.436;2023-06-14T16:35:52;3.97;;;1.70;;
78610;SDS011;67932;50.474;4.436;2023-06-14T16:38:19;2.10;;;1.70;;
78610;SDS011;67932;50.474;4.436;2023-06-14T16:40:46;5.35;;;1.83;;
78610;SDS011;67932;50.474;4.436;2023-06-14T16:43:13;2.30;;;1.70;;
78610;SDS011;67932;50.474;4.436;2023-06-14T16:45:40;4.65;;;1.85;;
78610;SDS011;67932;50.474;4.436;2023-06-14T16:48:06;4.63;;;1.70;;
78610;SDS011;67932;50.474;4.436;2023-06-14T16:50:32;5.43;;;1.90;;
78610;SDS011;67932;50.474;4.436;2023-06-14T16:53:08;3.78;;;1.80;;
78610;SDS011;67932;50.474;4.436;2023-06-14T16:55:35;3.33;;;1.75;;
78610;SDS011;67932;50.474;4.436;2023-06-14T16:58:02;3.60;;;1.67;;
78610;SDS011;67932;50.474;4.436;2023-06-14T17:00:29;2.65;;;1.80;;
78610;SDS011;67932;50.474;4.436;2023-06-14T17:02:55;4.28;;;1.80;;
78610;SDS011;67932;50.474;4.436;2023-06-14T17:05:24;7.32;;;2.05;;
78610;SDS011;67932;50.474;4.436;2023-06-14T17:07:53;3.05;;;1.75;;